aviador You're here:

OMDW Decoded Metar

in
Report Time2017-08-17 13:00:00
UTC Time2017-08-17 13:27:07
Flight Rules mvfr MVFR
Wind320° at 15 kt
W.Decomp.*RWY 30: 14.1 kt HW 5.1 kt RCW
W.Rank320° ranks 8
Current wind is above 320° avg. (10.8)
Visibility7000 m
Phenomena:N/A
Clouds:N/A
Expected CloudBase > 8,000 ft AGL from Temp-Dew spread
CeilingNone
Temp39°C
Dew Point19°C (31% RH)
Heat Index41.6°C
AAT36.7°C
QNH1001 hPa
Raw Report
METAR OMDW 171300Z 32015KT 7000 NSC 39/19 Q1001 NOSIG=

Extra information for OMDW:More info

Social comments